Aviation Digital Data Service (ADDS)

Output produced by METARs form (1525 UTC 22 October 2014)
found at http://www.aviationweather.gov/adds/metars/
 
KDUJ 221453Z AUTO 35012KT 10SM OVC008 07/06 A3011 RMK AO2 SLP203 T00670056 51013
KDUJ 221353Z AUTO 36009KT 10SM OVC008 07/06 A3011 RMK AO2 SLP203 T00670056
KDUJ 221253Z AUTO 01008KT 10SM OVC007 07/06 A3009 RMK AO2 SLP196 T00670056
KDUJ 221153Z AUTO 36011KT 10SM OVC006 07/05 A3007 RMK AO2 SLP189 70068 T00670050 10083 20067 51016
KDUJ 221053Z AUTO 36011KT 10SM OVC007 07/06 A3006 RMK AO2 SLP184 T00670056
KDUJ 220953Z AUTO 02011KT 10SM OVC007 07/06 A3004 RMK AO2 CIG 007V011 SLP179 T00670056
KDUJ 220853Z AUTO 36011KT 10SM OVC009 07/06 A3002 RMK AO2 CIG 007V012 SLP171 T00720061 53013
KDUJ 220845Z AUTO 01011KT 10SM OVC009 07/06 A3002 RMK AO2 CIG 007V014 T00720061
KDUJ 220753Z AUTO 01012KT 10SM OVC011 08/06 A3000 RMK AO2 SLP165 T00780061
KDUJ 220739Z AUTO 01009KT 10SM OVC010 08/06 A3000 RMK AO2 CIG 008V012 T00780061
KDUJ 220715Z AUTO 01009KT 10SM BKN009 OVC015 08/07 A2999 RMK AO2 CIG 007V012 T00830067
KDUJ 220700Z AUTO 01008KT 10SM FEW009 OVC016 08/07 A2999 RMK AO2 T00830067
KDUJ 220653Z AUTO 02010KT 10SM FEW010 OVC016 08/07 A2999 RMK AO2 SLP160 T00830067
KDUJ 220625Z AUTO 36007KT 10SM FEW008 SCT013 OVC018 08/07 A2999 RMK AO2 T00830072
KDUJ 220553Z AUTO 36007KT 10SM SCT006 BKN012 OVC020 08/08 A2998 RMK AO2 SLP158 60004 T00830078 10083 20078 58001
KDUJ 220546Z AUTO 36008KT 10SM FEW006 BKN015 OVC020 08/08 A2998 RMK AO2 T00830078
KDUJ 220541Z AUTO 35008KT 10SM BKN013 OVC019 08/08 A2998 RMK AO2 T00830078
KDUJ 220523Z AUTO 35007KT 10SM FEW008 OVC017 08/08 A2998 RMK AO2 T00830078
KDUJ 220453Z AUTO 35006KT 10SM OVC015 08/08 A2998 RMK AO2 SLP158 T00830078 401000078
KDUJ 220438Z AUTO 35006KT 10SM FEW009 BKN018 OVC085 08/08 A2998 RMK AO2 T00830078
KDUJ 220418Z AUTO 01006KT 10SM FEW007 BKN043 OVC070 08/07 A2998 RMK AO2 T00830072
KDUJ 220353Z AUTO 36006KT 10SM OVC012 08/08 A2999 RMK AO2 RAB0255E12 SLP158 P0001 T00830078
KDUJ 220335Z AUTO 36007KT 10SM BKN014 BKN042 OVC060 08/08 A2999 RMK AO2 RAB0255E12 P0001 T00830078
KDUJ 220322Z AUTO 36006KT 10SM FEW005 BKN046 OVC060 08/08 A2998 RMK AO2 RAB0255E12 P0001 T00830078
KDUJ 220315Z AUTO 35006KT 9SM FEW005 BKN019 OVC060 08/08 A2999 RMK AO2 RAB0255E12 P0001 T00830078
KDUJ 220253Z AUTO 35007KT 7SM OVC007 08/08 A2998 RMK AO2 RAE03 CIG 005V011 SLP157 P0001 60003 T00830078 51018
KDUJ 220220Z AUTO 35005KT 10SM BKN008 BKN012 OVC037 08/08 A2998 RMK AO2 RAE03 CIG 006V009 P0001 T00830078
KDUJ 220209Z AUTO 35006KT 10SM SCT008 BKN011 OVC037 08/08 A2998 RMK AO2 RAE03 P0001 T00830078
KDUJ 220153Z AUTO 34006KT 5SM -RA BR BKN009 BKN013 OVC050 08/08 A2997 RMK AO2 RAB48 SLP153 P0001 T00830078
KDUJ 220053Z AUTO 34005KT 10SM BKN008 OVC012 08/08 A2995 RMK AO2 RAB27E35 CIG 005V010 SLP145 P0001 T00830078
KDUJ 220026Z AUTO 33005KT 10SM BKN008 BKN013 OVC019 08/08 A2994 RMK AO2 CIG 006V010 T00830078
KDUJ 220010Z AUTO 32005KT 10SM FEW007 BKN013 OVC021 08/08 A2994 RMK AO2 T00830078
KDUJ 212353Z AUTO 33008KT 10SM OVC011 08/07 A2993 RMK AO2 RAE33 SLP139 P0003 60014 T00830072 10089 20083 51011
KDUJ 212327Z AUTO 32005KT 9SM -RA BKN008 OVC012 08/08 A2993 RMK AO2 CIG 004V010 P0003 T00830078
KDUJ 212318Z AUTO 32006KT 7SM -RA SCT008 OVC012 08/08 A2992 RMK AO2 P0002 T00830078
KDUJ 212253Z AUTO 30004KT 5SM -RA BR BKN008 OVC013 08/08 A2992 RMK AO2 RAE01B49 SLP134 P0002 T00830078
KDUJ 212212Z AUTO 00000KT 5SM BR BKN006 BKN015 OVC039 08/08 A2990 RMK AO2 RAE01 P0001 T00830078
KDUJ 212202Z AUTO 30003KT 5SM BR SCT008 BKN024 OVC041 08/08 A2990 RMK AO2 RAE01 P0000 T00830078
KDUJ 212153Z AUTO 30005KT 4SM -RA BR FEW015 FEW024 OVC038 08/08 A2990 RMK AO2 RAB17 SLP127 P0003 T00830078
KDUJ 212102Z AUTO 31005KT 9SM FEW007 OVC044 09/08 A2988 RMK AO2 T00890083
KDUJ 212053Z AUTO 30005KT 9SM OVC042 09/08 A2987 RMK AO2 SLP119 60006 T00890083 53007
KDUJ 211953Z AUTO 30007KT 10SM OVC040 09/08 A2986 RMK AO2 RAE35 SLP116 P0002 T00890083
KDUJ 211853Z AUTO 31006KT 8SM -RA BKN040 OVC050 09/08 A2985 RMK AO2 SLP112 P0004 T00890078
KDUJ 211753Z AUTO 35005KT 7SM -RA OVC047 08/08 A2985 RMK AO2 SLP112 P0009 60050 T00830078 10100 20083 50001
KDUJ 211653Z AUTO 35005KT 4SM -RA BR OVC038 08/07 A2986 RMK AO2 SLP114 P0028 T00830072
KDUJ 211642Z AUTO 33003KT 3SM -RA BR OVC038 08/07 A2986 RMK AO2 P0026 T00830072
KDUJ 211626Z AUTO 29004KT 1 1/4SM RA BR FEW007 OVC038 08/07 A2986 RMK AO2 P0018 T00830072
KDUJ 211619Z AUTO 27003KT 2SM RA BR FEW009 OVC036 08/07 A2986 RMK AO2 P0014 T00830072
KDUJ 211608Z AUTO 25006KT 1 1/2SM RA BR FEW006 SCT011 OVC034 08/07 A2986 RMK AO2 P0009 T00830072
KDUJ 211558Z AUTO 24006KT 1 1/4SM RA BR FEW006 BKN012 OVC031 09/08 A2986 RMK AO2 P0003 T00890078
KDUJ 211553Z AUTO 23007KT 1 1/4SM RA BR SCT010 BKN026 OVC035 09/08 A2986 RMK AO2 RAE04B24 SLP116 P0013 T00890078
KDUJ 211546Z AUTO 25008KT 1 3/4SM RA BR FEW005 BKN020 OVC026 09/08 A2986 RMK AO2 RAE04B24 P0006 T00940083
KDUJ 211540Z AUTO 24008KT 2 1/2SM -RA BR FEW005 BKN013 OVC025 09/09 A2986 RMK AO2 RAE04B24 P0003 T00940089
KDUJ 211538Z AUTO 25006KT 3SM -RA BR SCT009 BKN021 OVC025 09/09 A2986 RMK AO2 RAE04B24 P0002 T00940089
KDUJ 211453Z AUTO 00000KT 7SM -RA SCT006 OVC010 10/09 A2985 RMK AO2 RAB53 SLP111 P0000 60000 T01000089 51007
KDUJ 211402Z AUTO 21003KT 9SM BKN005 OVC016 09/09 A2985 RMK AO2 CIG 004V009 T00940089
KDUJ 211353Z AUTO 21003KT 9SM SCT005 OVC016 10/09 A2985 RMK AO2 SLP110 T01000089
KDUJ 211338Z AUTO 24004KT 10SM BKN005 OVC016 09/09 A2985 RMK AO2 CIG 003V009 T00940089
KDUJ 211253Z AUTO 24006KT 6SM BR OVC002 09/09 A2984 RMK AO2 SLP109 T00940089
KDUJ 211244Z AUTO 23005KT 3SM BR OVC002 09/09 A2984 RMK AO2 T00890089
KDUJ 211209Z AUTO 26006KT 1 3/4SM BR OVC002 09/08 A2983 RMK AO2 T00890083
KDUJ 211153Z AUTO 26006KT 5SM BR OVC003 09/08 A2983 RMK AO2 RAB1054E16 SLP103 P0002 60012 70015 T00890083 10089 20083 53006
KDUJ 211053Z AUTO 24005KT 3SM BR OVC002 09/08 A2982 RMK AO2 SLP099 T00890083
KDUJ 210953Z AUTO 24007KT 6SM BR OVC003 09/08 A2981 RMK AO2 RAE12 SLP096 P0001 T00890083
KDUJ 210853Z AUTO 23008KT 5SM -RA BR OVC004 08/08 A2981 RMK AO2 RAB14 CIG 003V008 SLP096 P0005 60009 T00830078 56006
KDUJ 210823Z AUTO 23006KT 6SM -RA BR OVC005 08/08 A2981 RMK AO2 RAB14 CIG 003V007 P0002 T00830078
KDUJ 210809Z AUTO 22007KT 9SM OVC004 08/08 A2981 RMK AO2 T00830078
KDUJ 210753Z AUTO 22006KT 7SM OVC005 08/08 A2981 RMK AO2 RAB14E29 CIG 003V008 SLP096 P0001 T00830078
KDUJ 210704Z AUTO 19005KT 3SM BR BKN007 OVC012 08/08 A2982 RMK AO2 CIG 004V009 T00830078
KDUJ 210653Z AUTO 21004KT 5SM BR OVC010 08/08 A2982 RMK AO2 RAB0559E15B38E48 CIG 005V013 SLP099 P0003 T00830078
KDUJ 210604Z AUTO 22005KT 6SM -RA BR OVC013 08/07 A2983 RMK AO2 RAB0559 P0002 T00830072
KDUJ 210553Z AUTO 21003KT 10SM OVC015 08/07 A2983 RMK AO2 SLP102 60003 T00830067 10100 20083 58015
KDUJ 210506Z AUTO 00000KT 10SM SCT017 BKN023 OVC050 08/07 A2984 RMK AO2 T00830072
KDUJ 210453Z AUTO 21003KT 10SM SCT022 OVC050 08/07 A2984 RMK AO2 SLP109 P0001 T00830072 401220022
KDUJ 210405Z AUTO 22006KT 10SM BKN023 BKN043 OVC050 08/07 A2986 RMK AO2 T00830067
KDUJ 210353Z AUTO 22006KT 10SM SCT021 BKN045 OVC070 08/07 A2986 RMK AO2 RAB08E18 SLP115 P0001 T00830067